sensor_id;sensor_type;location;lat;lon;timestamp;P1;durP1;ratioP1;P2;durP2;ratioP2
15408;SDS011;7803;48.130;13.788;2022-09-24T00:00:11;34.40;;;30.55;;
15408;SDS011;7803;48.130;13.788;2022-09-24T00:03:13;33.40;;;29.65;;
15408;SDS011;7803;48.130;13.788;2022-09-24T00:06:15;33.03;;;29.42;;
15408;SDS011;7803;48.130;13.788;2022-09-24T00:09:20;34.05;;;30.35;;
15408;SDS011;7803;48.130;13.788;2022-09-24T00:12:22;33.88;;;29.88;;
15408;SDS011;7803;48.130;13.788;2022-09-24T00:15:26;33.08;;;29.58;;
15408;SDS011;7803;48.130;13.788;2022-09-24T00:18:28;32.90;;;29.13;;
15408;SDS011;7803;48.130;13.788;2022-09-24T00:21:31;33.08;;;28.95;;
15408;SDS011;7803;48.130;13.788;2022-09-24T00:24:34;34.00;;;30.30;;
15408;SDS011;7803;48.130;13.788;2022-09-24T00:28:05;33.40;;;29.13;;
15408;SDS011;7803;48.130;13.788;2022-09-24T00:31:09;33.08;;;29.55;;
15408;SDS011;7803;48.130;13.788;2022-09-24T00:34:11;31.88;;;28.52;;
15408;SDS011;7803;48.130;13.788;2022-09-24T00:37:13;32.35;;;28.92;;
15408;SDS011;7803;48.130;13.788;2022-09-24T00:40:15;32.97;;;28.95;;
15408;SDS011;7803;48.130;13.788;2022-09-24T00:43:22;31.60;;;28.30;;
15408;SDS011;7803;48.130;13.788;2022-09-24T00:46:27;32.17;;;28.73;;
15408;SDS011;7803;48.130;13.788;2022-09-24T00:49:32;32.25;;;28.75;;
15408;SDS011;7803;48.130;13.788;2022-09-24T00:52:35;31.33;;;27.83;;
15408;SDS011;7803;48.130;13.788;2022-09-24T00:55:41;31.83;;;27.73;;
15408;SDS011;7803;48.130;13.788;2022-09-24T00:58:46;32.10;;;28.60;;
15408;SDS011;7803;48.130;13.788;2022-09-24T01:01:53;31.05;;;27.67;;
15408;SDS011;7803;48.130;13.788;2022-09-24T01:04:58;31.08;;;27.77;;
15408;SDS011;7803;48.130;13.788;2022-09-24T01:08:00;30.10;;;26.90;;
15408;SDS011;7803;48.130;13.788;2022-09-24T01:11:06;30.88;;;27.58;;
15408;SDS011;7803;48.130;13.788;2022-09-24T01:14:22;30.63;;;27.27;;
15408;SDS011;7803;48.130;13.788;2022-09-24T01:17:36;31.65;;;28.25;;
15408;SDS011;7803;48.130;13.788;2022-09-24T01:20:49;31.10;;;27.80;;
15408;SDS011;7803;48.130;13.788;2022-09-24T01:27:45;29.00;;;26.00;;
15408;SDS011;7803;48.130;13.788;2022-09-24T01:31:04;30.70;;;27.40;;
15408;SDS011;7803;48.130;13.788;2022-09-24T01:34:11;29.73;;;26.48;;
15408;SDS011;7803;48.130;13.788;2022-09-24T01:37:20;28.67;;;25.58;;
15408;SDS011;7803;48.130;13.788;2022-09-24T01:40:25;30.95;;;27.65;;
15408;SDS011;7803;48.130;13.788;2022-09-24T01:43:29;29.88;;;26.67;;
15408;SDS011;7803;48.130;13.788;2022-09-24T01:46:33;29.60;;;26.50;;
15408;SDS011;7803;48.130;13.788;2022-09-24T01:49:38;29.55;;;26.45;;
15408;SDS011;7803;48.130;13.788;2022-09-24T01:52:41;28.88;;;25.88;;
15408;SDS011;7803;48.130;13.788;2022-09-24T01:55:49;28.50;;;25.50;;
15408;SDS011;7803;48.130;13.788;2022-09-24T01:58:58;28.23;;;25.25;;
15408;SDS011;7803;48.130;13.788;2022-09-24T02:02:06;28.88;;;25.88;;
15408;SDS011;7803;48.130;13.788;2022-09-24T02:05:15;28.55;;;25.55;;
15408;SDS011;7803;48.130;13.788;2022-09-24T02:08:25;28.15;;;25.25;;
15408;SDS011;7803;48.130;13.788;2022-09-24T02:11:30;28.05;;;25.05;;
15408;SDS011;7803;48.130;13.788;2022-09-24T02:14:36;27.30;;;24.42;;
15408;SDS011;7803;48.130;13.788;2022-09-24T02:17:44;28.55;;;25.55;;
15408;SDS011;7803;48.130;13.788;2022-09-24T02:20:49;27.02;;;24.30;;
15408;SDS011;7803;48.130;13.788;2022-09-24T02:23:53;27.50;;;24.60;;
15408;SDS011;7803;48.130;13.788;2022-09-24T02:27:01;28.13;;;25.13;;
15408;SDS011;7803;48.130;13.788;2022-09-24T02:30:04;26.67;;;23.88;;
15408;SDS011;7803;48.130;13.788;2022-09-24T02:33:10;27.00;;;24.10;;
15408;SDS011;7803;48.130;13.788;2022-09-24T02:36:28;26.33;;;23.50;;
15408;SDS011;7803;48.130;13.788;2022-09-24T02:39:30;25.38;;;22.67;;
15408;SDS011;7803;48.130;13.788;2022-09-24T02:42:33;26.65;;;23.48;;
15408;SDS011;7803;48.130;13.788;2022-09-24T02:45:36;26.23;;;23.52;;
15408;SDS011;7803;48.130;13.788;2022-09-24T02:48:39;26.00;;;22.95;;
15408;SDS011;7803;48.130;13.788;2022-09-24T02:51:41;25.98;;;23.17;;
15408;SDS011;7803;48.130;13.788;2022-09-24T02:54:44;25.52;;;22.83;;
15408;SDS011;7803;48.130;13.788;2022-09-24T02:57:46;24.08;;;21.65;;
15408;SDS011;7803;48.130;13.788;2022-09-24T03:00:48;25.15;;;22.55;;
15408;SDS011;7803;48.130;13.788;2022-09-24T03:03:51;24.63;;;22.13;;
15408;SDS011;7803;48.130;13.788;2022-09-24T03:06:54;25.05;;;22.35;;
15408;SDS011;7803;48.130;13.788;2022-09-24T03:09:56;23.48;;;21.00;;
15408;SDS011;7803;48.130;13.788;2022-09-24T03:12:58;25.13;;;22.38;;
15408;SDS011;7803;48.130;13.788;2022-09-24T03:16:00;23.40;;;21.00;;
15408;SDS011;7803;48.130;13.788;2022-09-24T03:19:04;23.52;;;21.13;;
15408;SDS011;7803;48.130;13.788;2022-09-24T03:22:06;23.05;;;20.75;;
15408;SDS011;7803;48.130;13.788;2022-09-24T03:25:08;23.60;;;21.20;;
15408;SDS011;7803;48.130;13.788;2022-09-24T03:28:11;23.80;;;21.33;;
15408;SDS011;7803;48.130;13.788;2022-09-24T03:31:13;23.58;;;21.15;;
15408;SDS011;7803;48.130;13.788;2022-09-24T03:34:16;22.85;;;20.50;;
15408;SDS011;7803;48.130;13.788;2022-09-24T03:37:18;23.05;;;20.63;;
15408;SDS011;7803;48.130;13.788;2022-09-24T03:40:21;22.73;;;20.42;;
15408;SDS011;7803;48.130;13.788;2022-09-24T03:43:23;22.65;;;20.35;;
15408;SDS011;7803;48.130;13.788;2022-09-24T03:46:25;22.02;;;19.80;;
15408;SDS011;7803;48.130;13.788;2022-09-24T03:49:30;21.52;;;19.33;;
15408;SDS011;7803;48.130;13.788;2022-09-24T03:52:32;22.13;;;19.83;;
15408;SDS011;7803;48.130;13.788;2022-09-24T03:55:34;20.92;;;18.75;;
15408;SDS011;7803;48.130;13.788;2022-09-24T03:58:36;21.83;;;19.50;;
15408;SDS011;7803;48.130;13.788;2022-09-24T04:01:39;21.90;;;19.70;;
15408;SDS011;7803;48.130;13.788;2022-09-24T04:04:42;21.08;;;18.90;;
15408;SDS011;7803;48.130;13.788;2022-09-24T04:07:44;20.95;;;18.85;;
15408;SDS011;7803;48.130;13.788;2022-09-24T04:10:46;21.83;;;19.52;;
15408;SDS011;7803;48.130;13.788;2022-09-24T04:13:49;20.33;;;18.33;;
15408;SDS011;7803;48.130;13.788;2022-09-24T04:16:54;21.13;;;18.92;;
15408;SDS011;7803;48.130;13.788;2022-09-24T04:19:59;20.40;;;18.35;;
15408;SDS011;7803;48.130;13.788;2022-09-24T04:23:02;20.95;;;18.83;;
15408;SDS011;7803;48.130;13.788;2022-09-24T04:26:04;20.42;;;18.25;;
15408;SDS011;7803;48.130;13.788;2022-09-24T04:29:06;20.50;;;18.23;;
15408;SDS011;7803;48.130;13.788;2022-09-24T04:32:08;19.02;;;17.13;;
15408;SDS011;7803;48.130;13.788;2022-09-24T04:35:11;19.85;;;17.83;;
15408;SDS011;7803;48.130;13.788;2022-09-24T04:38:13;20.00;;;18.00;;
15408;SDS011;7803;48.130;13.788;2022-09-24T04:41:15;19.40;;;17.40;;
15408;SDS011;7803;48.130;13.788;2022-09-24T04:44:17;18.00;;;16.13;;
15408;SDS011;7803;48.130;13.788;2022-09-24T04:47:19;18.15;;;16.35;;
15408;SDS011;7803;48.130;13.788;2022-09-24T04:50:27;18.38;;;16.48;;
15408;SDS011;7803;48.130;13.788;2022-09-24T04:53:32;19.33;;;17.33;;
15408;SDS011;7803;48.130;13.788;2022-09-24T04:56:35;18.38;;;16.50;;
15408;SDS011;7803;48.130;13.788;2022-09-24T04:59:37;18.50;;;16.58;;
15408;SDS011;7803;48.130;13.788;2022-09-24T05:02:39;17.40;;;15.60;;
15408;SDS011;7803;48.130;13.788;2022-09-24T05:05:43;18.58;;;16.60;;
15408;SDS011;7803;48.130;13.788;2022-09-24T05:08:45;18.40;;;16.50;;
15408;SDS011;7803;48.130;13.788;2022-09-24T05:11:47;17.85;;;16.05;;
15408;SDS011;7803;48.130;13.788;2022-09-24T05:14:49;17.42;;;15.63;;
15408;SDS011;7803;48.130;13.788;2022-09-24T05:17:51;16.25;;;14.65;;
15408;SDS011;7803;48.130;13.788;2022-09-24T05:20:54;18.02;;;16.23;;
15408;SDS011;7803;48.130;13.788;2022-09-24T05:23:56;17.02;;;15.32;;
15408;SDS011;7803;48.130;13.788;2022-09-24T05:26:58;16.95;;;15.15;;
15408;SDS011;7803;48.130;13.788;2022-09-24T05:30:10;16.63;;;14.93;;
15408;SDS011;7803;48.130;13.788;2022-09-24T05:33:12;16.27;;;14.57;;
15408;SDS011;7803;48.130;13.788;2022-09-24T05:36:16;16.55;;;14.93;;
15408;SDS011;7803;48.130;13.788;2022-09-24T05:39:18;16.55;;;14.95;;
15408;SDS011;7803;48.130;13.788;2022-09-24T05:42:20;16.05;;;14.45;;
15408;SDS011;7803;48.130;13.788;2022-09-24T05:45:22;15.77;;;14.18;;
15408;SDS011;7803;48.130;13.788;2022-09-24T05:48:24;15.35;;;13.85;;
15408;SDS011;7803;48.130;13.788;2022-09-24T05:51:27;15.30;;;13.77;;
15408;SDS011;7803;48.130;13.788;2022-09-24T05:54:29;15.63;;;14.13;;
15408;SDS011;7803;48.130;13.788;2022-09-24T05:57:32;16.60;;;14.82;;
15408;SDS011;7803;48.130;13.788;2022-09-24T06:00:34;15.95;;;14.35;;
15408;SDS011;7803;48.130;13.788;2022-09-24T06:03:37;15.30;;;13.70;;
15408;SDS011;7803;48.130;13.788;2022-09-24T06:06:40;15.30;;;13.77;;
15408;SDS011;7803;48.130;13.788;2022-09-24T06:09:42;15.65;;;14.05;;
15408;SDS011;7803;48.130;13.788;2022-09-24T06:12:44;15.60;;;14.07;;
15408;SDS011;7803;48.130;13.788;2022-09-24T06:15:46;15.35;;;13.85;;
15408;SDS011;7803;48.130;13.788;2022-09-24T06:18:48;15.43;;;13.90;;
15408;SDS011;7803;48.130;13.788;2022-09-24T06:21:52;15.82;;;14.13;;
15408;SDS011;7803;48.130;13.788;2022-09-24T06:24:54;15.23;;;13.73;;
15408;SDS011;7803;48.130;13.788;2022-09-24T06:27:57;15.20;;;13.70;;
15408;SDS011;7803;48.130;13.788;2022-09-24T06:31:00;14.98;;;13.38;;
15408;SDS011;7803;48.130;13.788;2022-09-24T06:34:02;14.77;;;13.38;;
15408;SDS011;7803;48.130;13.788;2022-09-24T06:37:05;14.32;;;12.82;;
15408;SDS011;7803;48.130;13.788;2022-09-24T06:40:08;14.57;;;13.18;;
15408;SDS011;7803;48.130;13.788;2022-09-24T06:43:10;14.93;;;13.43;;
15408;SDS011;7803;48.130;13.788;2022-09-24T06:46:13;14.27;;;12.90;;
15408;SDS011;7803;48.130;13.788;2022-09-24T06:49:15;14.18;;;12.77;;
15408;SDS011;7803;48.130;13.788;2022-09-24T06:52:19;14.45;;;12.95;;
15408;SDS011;7803;48.130;13.788;2022-09-24T06:55:22;14.15;;;12.75;;
15408;SDS011;7803;48.130;13.788;2022-09-24T06:58:25;14.32;;;12.82;;
15408;SDS011;7803;48.130;13.788;2022-09-24T07:01:28;14.40;;;12.90;;
15408;SDS011;7803;48.130;13.788;2022-09-24T07:04:30;13.60;;;12.30;;
15408;SDS011;7803;48.130;13.788;2022-09-24T07:07:33;14.25;;;12.77;;
15408;SDS011;7803;48.130;13.788;2022-09-24T07:10:36;14.27;;;12.85;;
15408;SDS011;7803;48.130;13.788;2022-09-24T07:13:42;14.30;;;12.80;;
15408;SDS011;7803;48.130;13.788;2022-09-24T07:16:46;13.75;;;12.35;;
15408;SDS011;7803;48.130;13.788;2022-09-24T07:19:48;14.02;;;12.63;;
15408;SDS011;7803;48.130;13.788;2022-09-24T07:22:51;13.35;;;12.02;;
15408;SDS011;7803;48.130;13.788;2022-09-24T07:25:54;14.00;;;12.60;;
15408;SDS011;7803;48.130;13.788;2022-09-24T07:28:56;13.43;;;12.10;;
15408;SDS011;7803;48.130;13.788;2022-09-24T07:31:58;13.68;;;12.27;;
15408;SDS011;7803;48.130;13.788;2022-09-24T07:35:00;13.60;;;12.20;;
15408;SDS011;7803;48.130;13.788;2022-09-24T07:38:04;12.90;;;11.60;;
15408;SDS011;7803;48.130;13.788;2022-09-24T07:41:08;12.40;;;11.20;;
15408;SDS011;7803;48.130;13.788;2022-09-24T07:44:10;13.00;;;11.75;;
15408;SDS011;7803;48.130;13.788;2022-09-24T07:47:12;12.68;;;11.38;;
15408;SDS011;7803;48.130;13.788;2022-09-24T07:50:15;12.30;;;11.05;;
15408;SDS011;7803;48.130;13.788;2022-09-24T07:53:19;13.10;;;11.80;;
15408;SDS011;7803;48.130;13.788;2022-09-24T07:56:23;13.38;;;12.00;;
15408;SDS011;7803;48.130;13.788;2022-09-24T07:59:25;12.57;;;11.27;;
15408;SDS011;7803;48.130;13.788;2022-09-24T08:02:27;13.15;;;11.85;;
15408;SDS011;7803;48.130;13.788;2022-09-24T08:05:29;12.75;;;11.55;;
15408;SDS011;7803;48.130;13.788;2022-09-24T08:08:33;13.68;;;12.13;;
15408;SDS011;7803;48.130;13.788;2022-09-24T08:11:35;13.10;;;11.70;;
15408;SDS011;7803;48.130;13.788;2022-09-24T08:14:38;12.68;;;11.48;;
15408;SDS011;7803;48.130;13.788;2022-09-24T08:17:40;12.30;;;11.05;;
15408;SDS011;7803;48.130;13.788;2022-09-24T08:20:43;12.05;;;10.85;;
15408;SDS011;7803;48.130;13.788;2022-09-24T08:23:46;11.80;;;10.68;;
15408;SDS011;7803;48.130;13.788;2022-09-24T08:26:48;12.60;;;11.30;;
15408;SDS011;7803;48.130;13.788;2022-09-24T08:29:50;11.70;;;10.55;;
15408;SDS011;7803;48.130;13.788;2022-09-24T08:32:52;12.23;;;11.13;;
15408;SDS011;7803;48.130;13.788;2022-09-24T08:35:55;11.95;;;10.75;;
15408;SDS011;7803;48.130;13.788;2022-09-24T08:39:01;12.00;;;10.80;;
15408;SDS011;7803;48.130;13.788;2022-09-24T08:42:03;11.35;;;10.25;;
15408;SDS011;7803;48.130;13.788;2022-09-24T08:45:07;11.55;;;10.35;;
15408;SDS011;7803;48.130;13.788;2022-09-24T08:48:28;11.82;;;10.63;;
15408;SDS011;7803;48.130;13.788;2022-09-24T08:51:35;11.90;;;10.70;;
15408;SDS011;7803;48.130;13.788;2022-09-24T08:54:43;11.60;;;10.50;;
15408;SDS011;7803;48.130;13.788;2022-09-24T08:57:48;12.23;;;10.95;;
15408;SDS011;7803;48.130;13.788;2022-09-24T09:01:00;11.10;;;9.95;;
15408;SDS011;7803;48.130;13.788;2022-09-24T09:04:12;10.90;;;9.80;;
15408;SDS011;7803;48.130;13.788;2022-09-24T09:07:25;10.95;;;9.85;;
15408;SDS011;7803;48.130;13.788;2022-09-24T09:10:34;11.52;;;10.43;;
15408;SDS011;7803;48.130;13.788;2022-09-24T09:13:40;11.55;;;10.35;;
15408;SDS011;7803;48.130;13.788;2022-09-24T09:16:46;11.23;;;10.10;;
15408;SDS011;7803;48.130;13.788;2022-09-24T09:19:54;11.50;;;10.30;;
15408;SDS011;7803;48.130;13.788;2022-09-24T09:22:59;10.77;;;9.73;;
15408;SDS011;7803;48.130;13.788;2022-09-24T09:26:12;11.20;;;10.10;;
15408;SDS011;7803;48.130;13.788;2022-09-24T09:29:16;11.27;;;10.13;;
15408;SDS011;7803;48.130;13.788;2022-09-24T09:32:22;10.27;;;9.27;;
15408;SDS011;7803;48.130;13.788;2022-09-24T09:35:35;11.50;;;10.40;;
15408;SDS011;7803;48.130;13.788;2022-09-24T09:38:44;10.52;;;9.52;;
15408;SDS011;7803;48.130;13.788;2022-09-24T09:41:56;10.38;;;9.38;;
15408;SDS011;7803;48.130;13.788;2022-09-24T09:45:12;10.23;;;9.27;;
15408;SDS011;7803;48.130;13.788;2022-09-24T09:48:20;11.13;;;10.02;;
15408;SDS011;7803;48.130;13.788;2022-09-24T09:51:25;11.20;;;10.10;;
15408;SDS011;7803;48.130;13.788;2022-09-24T09:54:35;10.45;;;9.40;;
15408;SDS011;7803;48.130;13.788;2022-09-24T09:57:39;11.18;;;9.82;;
15408;SDS011;7803;48.130;13.788;2022-09-24T10:00:42;10.65;;;9.63;;
15408;SDS011;7803;48.130;13.788;2022-09-24T10:03:46;10.25;;;9.25;;
15408;SDS011;7803;48.130;13.788;2022-09-24T10:06:49;10.50;;;9.50;;
15408;SDS011;7803;48.130;13.788;2022-09-24T10:10:01;10.15;;;9.15;;
15408;SDS011;7803;48.130;13.788;2022-09-24T10:13:18;10.45;;;9.35;;
15408;SDS011;7803;48.130;13.788;2022-09-24T10:16:20;10.05;;;9.05;;
15408;SDS011;7803;48.130;13.788;2022-09-24T10:19:22;9.55;;;8.55;;
15408;SDS011;7803;48.130;13.788;2022-09-24T10:22:26;9.60;;;8.70;;
15408;SDS011;7803;48.130;13.788;2022-09-24T10:25:30;9.75;;;8.82;;
15408;SDS011;7803;48.130;13.788;2022-09-24T10:28:36;9.30;;;8.40;;
15408;SDS011;7803;48.130;13.788;2022-09-24T10:31:59;10.13;;;9.00;;
15408;SDS011;7803;48.130;13.788;2022-09-24T10:35:03;10.02;;;8.98;;
15408;SDS011;7803;48.130;13.788;2022-09-24T10:38:21;9.73;;;8.73;;
15408;SDS011;7803;48.130;13.788;2022-09-24T10:41:24;9.93;;;8.90;;
15408;SDS011;7803;48.130;13.788;2022-09-24T10:44:31;9.60;;;8.68;;
15408;SDS011;7803;48.130;13.788;2022-09-24T10:47:36;9.30;;;8.40;;
15408;SDS011;7803;48.130;13.788;2022-09-24T10:50:49;9.10;;;8.25;;
15408;SDS011;7803;48.130;13.788;2022-09-24T10:54:01;9.05;;;8.15;;
15408;SDS011;7803;48.130;13.788;2022-09-24T10:57:15;9.30;;;8.40;;
15408;SDS011;7803;48.130;13.788;2022-09-24T11:00:27;9.88;;;8.85;;
15408;SDS011;7803;48.130;13.788;2022-09-24T11:03:47;9.40;;;8.48;;
15408;SDS011;7803;48.130;13.788;2022-09-24T11:13:55;9.25;;;8.27;;
15408;SDS011;7803;48.130;13.788;2022-09-24T11:17:19;8.90;;;8.02;;
15408;SDS011;7803;48.130;13.788;2022-09-24T11:20:37;9.15;;;8.25;;
15408;SDS011;7803;48.130;13.788;2022-09-24T11:23:53;9.35;;;8.38;;
15408;SDS011;7803;48.130;13.788;2022-09-24T11:27:22;8.85;;;7.95;;
15408;SDS011;7803;48.130;13.788;2022-09-24T11:30:40;9.38;;;8.48;;
15408;SDS011;7803;48.130;13.788;2022-09-24T11:33:58;9.40;;;8.40;;
15408;SDS011;7803;48.130;13.788;2022-09-24T11:37:15;8.43;;;7.63;;
15408;SDS011;7803;48.130;13.788;2022-09-24T11:40:28;8.52;;;7.68;;
15408;SDS011;7803;48.130;13.788;2022-09-24T11:43:51;8.82;;;7.80;;
15408;SDS011;7803;48.130;13.788;2022-09-24T11:47:06;9.80;;;8.10;;
15408;SDS011;7803;48.130;13.788;2022-09-24T11:50:28;9.07;;;7.82;;
15408;SDS011;7803;48.130;13.788;2022-09-24T11:53:43;9.15;;;8.05;;
15408;SDS011;7803;48.130;13.788;2022-09-24T11:56:53;9.00;;;7.90;;
15408;SDS011;7803;48.130;13.788;2022-09-24T11:59:59;8.30;;;7.50;;
15408;SDS011;7803;48.130;13.788;2022-09-24T12:03:07;9.68;;;7.53;;
15408;SDS011;7803;48.130;13.788;2022-09-24T12:06:19;9.75;;;7.53;;
15408;SDS011;7803;48.130;13.788;2022-09-24T12:09:26;9.10;;;7.57;;
15408;SDS011;7803;48.130;13.788;2022-09-24T12:12:32;8.50;;;7.20;;
15408;SDS011;7803;48.130;13.788;2022-09-24T12:15:41;8.32;;;7.50;;
15408;SDS011;7803;48.130;13.788;2022-09-24T12:18:48;8.60;;;7.70;;
15408;SDS011;7803;48.130;13.788;2022-09-24T12:21:56;9.52;;;7.55;;
15408;SDS011;7803;48.130;13.788;2022-09-24T12:25:03;8.13;;;7.32;;
15408;SDS011;7803;48.130;13.788;2022-09-24T12:28:08;9.48;;;8.00;;
15408;SDS011;7803;48.130;13.788;2022-09-24T12:31:12;7.80;;;7.10;;
15408;SDS011;7803;48.130;13.788;2022-09-24T12:34:41;7.97;;;7.18;;
15408;SDS011;7803;48.130;13.788;2022-09-24T12:37:51;7.88;;;7.13;;
15408;SDS011;7803;48.130;13.788;2022-09-24T12:44:26;8.35;;;7.45;;
15408;SDS011;7803;48.130;13.788;2022-09-24T12:47:44;8.18;;;7.38;;
15408;SDS011;7803;48.130;13.788;2022-09-24T12:50:53;7.72;;;6.93;;
15408;SDS011;7803;48.130;13.788;2022-09-24T12:54:05;7.88;;;6.95;;
15408;SDS011;7803;48.130;13.788;2022-09-24T12:57:11;7.85;;;7.05;;
15408;SDS011;7803;48.130;13.788;2022-09-24T13:03:41;7.53;;;6.75;;
15408;SDS011;7803;48.130;13.788;2022-09-24T13:06:43;7.80;;;7.00;;
15408;SDS011;7803;48.130;13.788;2022-09-24T13:09:48;7.78;;;7.07;;
15408;SDS011;7803;48.130;13.788;2022-09-24T13:12:50;7.03;;;6.35;;
15408;SDS011;7803;48.130;13.788;2022-09-24T13:16:00;7.47;;;6.78;;
15408;SDS011;7803;48.130;13.788;2022-09-24T13:19:04;7.72;;;7.00;;
15408;SDS011;7803;48.130;13.788;2022-09-24T13:22:20;7.30;;;6.60;;
15408;SDS011;7803;48.130;13.788;2022-09-24T13:25:27;7.05;;;6.35;;
15408;SDS011;7803;48.130;13.788;2022-09-24T13:28:30;7.40;;;6.65;;
15408;SDS011;7803;48.130;13.788;2022-09-24T13:31:39;6.85;;;6.15;;
15408;SDS011;7803;48.130;13.788;2022-09-24T13:34:46;7.55;;;6.72;;
15408;SDS011;7803;48.130;13.788;2022-09-24T13:37:51;7.00;;;6.38;;
15408;SDS011;7803;48.130;13.788;2022-09-24T13:40:57;7.03;;;6.32;;
15408;SDS011;7803;48.130;13.788;2022-09-24T13:44:04;7.38;;;6.68;;
15408;SDS011;7803;48.130;13.788;2022-09-24T13:47:21;7.35;;;6.63;;
15408;SDS011;7803;48.130;13.788;2022-09-24T13:50:29;7.78;;;6.70;;
15408;SDS011;7803;48.130;13.788;2022-09-24T13:53:35;6.82;;;6.18;;
15408;SDS011;7803;48.130;13.788;2022-09-24T13:56:41;7.03;;;6.40;;
15408;SDS011;7803;48.130;13.788;2022-09-24T14:00:03;7.13;;;6.43;;
15408;SDS011;7803;48.130;13.788;2022-09-24T14:03:16;7.13;;;6.43;;
15408;SDS011;7803;48.130;13.788;2022-09-24T14:06:29;6.65;;;6.05;;
15408;SDS011;7803;48.130;13.788;2022-09-24T14:09:34;7.13;;;6.43;;
15408;SDS011;7803;48.130;13.788;2022-09-24T14:12:38;6.78;;;6.18;;
15408;SDS011;7803;48.130;13.788;2022-09-24T14:15:48;6.50;;;5.90;;
15408;SDS011;7803;48.130;13.788;2022-09-24T14:18:59;6.65;;;6.00;;
15408;SDS011;7803;48.130;13.788;2022-09-24T14:22:03;7.63;;;6.80;;
15408;SDS011;7803;48.130;13.788;2022-09-24T14:25:07;6.90;;;5.93;;
15408;SDS011;7803;48.130;13.788;2022-09-24T14:28:15;6.78;;;6.13;;
15408;SDS011;7803;48.130;13.788;2022-09-24T14:31:18;6.25;;;5.50;;
15408;SDS011;7803;48.130;13.788;2022-09-24T14:34:24;6.60;;;6.00;;
15408;SDS011;7803;48.130;13.788;2022-09-24T14:37:28;6.40;;;5.80;;
15408;SDS011;7803;48.130;13.788;2022-09-24T14:40:37;6.50;;;5.90;;
15408;SDS011;7803;48.130;13.788;2022-09-24T14:43:44;6.88;;;5.65;;
15408;SDS011;7803;48.130;13.788;2022-09-24T14:46:50;6.85;;;6.15;;
15408;SDS011;7803;48.130;13.788;2022-09-24T14:49:55;6.60;;;5.70;;
15408;SDS011;7803;48.130;13.788;2022-09-24T14:52:57;6.60;;;6.00;;
15408;SDS011;7803;48.130;13.788;2022-09-24T14:56:00;6.80;;;6.10;;
15408;SDS011;7803;48.130;13.788;2022-09-24T14:59:26;6.43;;;5.82;;
15408;SDS011;7803;48.130;13.788;2022-09-24T15:02:30;6.25;;;5.65;;
15408;SDS011;7803;48.130;13.788;2022-09-24T15:05:36;6.43;;;5.80;;
15408;SDS011;7803;48.130;13.788;2022-09-24T15:08:38;7.25;;;5.65;;
15408;SDS011;7803;48.130;13.788;2022-09-24T15:11:42;6.32;;;5.65;;
15408;SDS011;7803;48.130;13.788;2022-09-24T15:14:56;7.43;;;5.88;;
15408;SDS011;7803;48.130;13.788;2022-09-24T15:17:59;8.70;;;6.00;;
15408;SDS011;7803;48.130;13.788;2022-09-24T15:21:01;10.80;;;6.18;;
15408;SDS011;7803;48.130;13.788;2022-09-24T15:24:07;6.78;;;5.88;;
15408;SDS011;7803;48.130;13.788;2022-09-24T15:27:14;9.70;;;5.85;;
15408;SDS011;7803;48.130;13.788;2022-09-24T15:30:21;11.48;;;6.22;;
15408;SDS011;7803;48.130;13.788;2022-09-24T15:33:23;11.45;;;6.72;;
15408;SDS011;7803;48.130;13.788;2022-09-24T15:36:25;15.43;;;7.38;;
15408;SDS011;7803;48.130;13.788;2022-09-24T15:39:27;12.82;;;6.80;;
15408;SDS011;7803;48.130;13.788;2022-09-24T15:42:31;14.73;;;7.32;;
15408;SDS011;7803;48.130;13.788;2022-09-24T15:45:34;12.27;;;6.90;;
15408;SDS011;7803;48.130;13.788;2022-09-24T15:48:36;13.07;;;6.93;;
15408;SDS011;7803;48.130;13.788;2022-09-24T15:51:38;11.05;;;7.10;;
15408;SDS011;7803;48.130;13.788;2022-09-24T15:54:40;8.90;;;6.80;;
15408;SDS011;7803;48.130;13.788;2022-09-24T15:57:42;8.85;;;6.78;;
15408;SDS011;7803;48.130;13.788;2022-09-24T16:00:46;8.02;;;6.43;;
15408;SDS011;7803;48.130;13.788;2022-09-24T16:03:49;13.02;;;6.68;;
15408;SDS011;7803;48.130;13.788;2022-09-24T16:06:52;8.98;;;6.20;;
15408;SDS011;7803;48.130;13.788;2022-09-24T16:09:54;9.68;;;5.97;;
15408;SDS011;7803;48.130;13.788;2022-09-24T16:12:56;10.10;;;5.88;;
15408;SDS011;7803;48.130;13.788;2022-09-24T16:16:00;8.30;;;6.10;;
15408;SDS011;7803;48.130;13.788;2022-09-24T16:19:02;9.38;;;5.97;;
15408;SDS011;7803;48.130;13.788;2022-09-24T16:22:06;6.72;;;5.88;;
15408;SDS011;7803;48.130;13.788;2022-09-24T16:25:08;8.10;;;6.00;;
15408;SDS011;7803;48.130;13.788;2022-09-24T16:28:10;8.65;;;6.00;;
15408;SDS011;7803;48.130;13.788;2022-09-24T16:31:13;7.68;;;6.05;;
15408;SDS011;7803;48.130;13.788;2022-09-24T16:34:15;8.77;;;5.82;;
15408;SDS011;7803;48.130;13.788;2022-09-24T16:37:17;6.40;;;5.50;;
15408;SDS011;7803;48.130;13.788;2022-09-24T16:40:19;8.60;;;5.78;;
15408;SDS011;7803;48.130;13.788;2022-09-24T16:43:21;8.70;;;6.05;;
15408;SDS011;7803;48.130;13.788;2022-09-24T16:46:24;8.73;;;5.95;;
15408;SDS011;7803;48.130;13.788;2022-09-24T16:49:26;9.38;;;5.70;;
15408;SDS011;7803;48.130;13.788;2022-09-24T16:52:28;7.38;;;5.78;;
15408;SDS011;7803;48.130;13.788;2022-09-24T16:55:31;7.32;;;5.30;;
15408;SDS011;7803;48.130;13.788;2022-09-24T16:58:33;7.07;;;5.45;;
15408;SDS011;7803;48.130;13.788;2022-09-24T17:01:36;6.93;;;5.45;;
15408;SDS011;7803;48.130;13.788;2022-09-24T17:04:41;8.15;;;5.30;;
15408;SDS011;7803;48.130;13.788;2022-09-24T17:07:43;7.63;;;5.68;;
15408;SDS011;7803;48.130;13.788;2022-09-24T17:10:48;7.15;;;5.40;;
15408;SDS011;7803;48.130;13.788;2022-09-24T17:13:50;6.43;;;5.50;;
15408;SDS011;7803;48.130;13.788;2022-09-24T17:16:54;7.93;;;5.43;;
15408;SDS011;7803;48.130;13.788;2022-09-24T17:19:56;6.40;;;5.32;;
15408;SDS011;7803;48.130;13.788;2022-09-24T17:22:58;6.63;;;5.60;;
15408;SDS011;7803;48.130;13.788;2022-09-24T17:26:00;8.90;;;5.63;;
15408;SDS011;7803;48.130;13.788;2022-09-24T17:29:02;6.22;;;5.25;;
15408;SDS011;7803;48.130;13.788;2022-09-24T17:32:06;6.63;;;5.57;;
15408;SDS011;7803;48.130;13.788;2022-09-24T17:35:08;7.45;;;5.80;;
15408;SDS011;7803;48.130;13.788;2022-09-24T17:38:10;6.80;;;5.80;;
15408;SDS011;7803;48.130;13.788;2022-09-24T17:41:12;6.93;;;5.53;;
15408;SDS011;7803;48.130;13.788;2022-09-24T17:44:14;5.50;;;5.00;;
15408;SDS011;7803;48.130;13.788;2022-09-24T17:47:18;6.55;;;5.47;;
15408;SDS011;7803;48.130;13.788;2022-09-24T17:50:20;6.60;;;5.75;;
15408;SDS011;7803;48.130;13.788;2022-09-24T17:53:23;6.97;;;5.63;;
15408;SDS011;7803;48.130;13.788;2022-09-24T17:56:27;6.10;;;5.50;;
15408;SDS011;7803;48.130;13.788;2022-09-24T17:59:31;6.80;;;5.88;;
15408;SDS011;7803;48.130;13.788;2022-09-24T18:02:34;7.18;;;5.63;;
15408;SDS011;7803;48.130;13.788;2022-09-24T18:05:36;7.20;;;5.55;;
15408;SDS011;7803;48.130;13.788;2022-09-24T18:08:38;7.35;;;5.88;;
15408;SDS011;7803;48.130;13.788;2022-09-24T18:11:42;7.43;;;5.90;;
15408;SDS011;7803;48.130;13.788;2022-09-24T18:14:45;7.07;;;5.22;;
15408;SDS011;7803;48.130;13.788;2022-09-24T18:17:49;5.80;;;5.03;;
15408;SDS011;7803;48.130;13.788;2022-09-24T18:20:51;7.00;;;5.60;;
15408;SDS011;7803;48.130;13.788;2022-09-24T18:23:54;5.97;;;5.38;;
15408;SDS011;7803;48.130;13.788;2022-09-24T18:26:57;6.35;;;5.50;;
15408;SDS011;7803;48.130;13.788;2022-09-24T18:29:59;7.28;;;5.47;;
15408;SDS011;7803;48.130;13.788;2022-09-24T18:33:03;5.95;;;5.35;;
15408;SDS011;7803;48.130;13.788;2022-09-24T18:36:08;5.30;;;4.78;;